Terminal Aerodrome Forecast
Issued by NWS

Home | Current Version | Previous Version | Text Only | Print | Product List | Glossary On
Versions: 1 2 3 4 5 6 7 8 9 10 11 12 13
300
FTUS43 KDLH 220520
TAFBRD
TAF
KBRD 220520Z 2206/2306 VRB03KT P6SM SCT250
     FM221700 20012G19KT P6SM SKC
     FM222200 20006KT P6SM SKC=

USA.gov is the U.S. government's official web portal to all federal, state and local government web resources and services.